Nikolaos Pelkas

Chefscout - AEL Larisa
4 Apr 2027
Sonntag
Verarbeitung

Persönlichkeit

Anpassungsfähigkeit (16) Ehrgeiz (10) Kontroverse (11) Loyalität (9) Druck (4) Professionalität (4) Fairness (7) Temperament (13)

Profil

Trainerstil Demokratisch
Lizenz Kontinentale B
Entschlossenheit 3
Menschenführung 7
Motivation 7
Disziplin 7
Arbeitszufriedenheit
50%
Ermüdung
0%
Rolle Chefscout
Gehalt 31.3K p/W
Vertrag 14.03.2030

Leistung

Verhalten Normal
Trainingseffektivität
21%
Spielerentwicklung
25%
Verletzungsprävention
30%
Taktische Umsetzung
40%

Letzte Ereignisse

Spieler begutachtet jetzt
Nahm an einer Scouting-Besprechung teil jetzt
Nahm an einer Scouting-Besprechung teil jetzt
Spieler begutachtet jetzt
Spieler begutachtet jetzt
Spieler begutachtet 7T her
Spieler begutachtet 7T her
Spieler begutachtet 7T her

Aktuell beobachtet

159
Spieler Verein Status Fähigkeit Vertrauen Beobachtet Zuletzt beobachtet Letzte Stimme
Nardin Mulahusejnović Vojvodina Aktiv 134 / 123 40% 4 02.04.2027 -
Giuseppe Panico Foggia Aktiv 122 / 116 40% 1 02.04.2027 -
Rui Costa Port Vale Aktiv 92 / 103 40% 6 01.04.2027 -
Mohamed Konaté Akhmat Grozny Aktiv 110 / 107 40% 3 01.04.2027 -
Samuel Tetteh Wa All Stars Aktiv 106 / 111 40% 1 31.03.2027 -
Simone Ianesi Pianese Aktiv 88 / 92 40% 1 31.03.2027 -
Martin Sekulić Ural Aktiv 108 / 115 40% 2 30.03.2027 -
Mésaque Djú Portimonense Aktiv 93 / 107 40% 2 29.03.2027 -
Ben Ahmed Kohili Paradou Aktiv 110 / 103 40% 1 29.03.2027 -
Shayne Lavery Cambridge United Aktiv 118 / 104 40% 3 27.03.2027 -
Dadi Mouaki CS Constantine Aktiv 88 / 99 40% 1 27.03.2027 -
Peter Itodo Metalist Aktiv 111 / 116 40% 2 26.03.2027 -
Lazar Mijović Cukaricki Aktiv 106 / 109 40% 1 26.03.2027 -
Vladyslav Vakula Obolon Aktiv 103 / 101 40% 1 25.03.2027 -
Kingsley Eduwo El Masry Aktiv 117 / 110 40% 1 25.03.2027 -
Ismail Saadi JS Saoura Aktiv 117 / 105 40% 1 24.03.2027 -
Martín Álvarez Barnsley Aktiv 116 / 105 40% 1 23.03.2027 -
Christos Giousis Nea Salamis Aktiv 87 / 112 40% 3 22.03.2027 -
Bogdan Petrović TSC Aktiv 100 / 110 40% 1 22.03.2027 -
Edarlyn Reyes Arsenal Tula Aktiv 115 / 113 40% 4 20.03.2027 -
Miguel Falé Pacos de Ferreira Aktiv 109 / 102 40% 1 20.03.2027 -
Carlos Paraco Metalist Aktiv 111 / 111 40% 4 19.03.2027 -
Danyil Alefirenko Chornomorets Aktiv 113 / 103 40% 2 18.03.2027 -
Yurii Klymchuk Kolos Aktiv 110 / 116 40% 2 17.03.2027 -
Luther Zwane Platinum Stars Aktiv 107 / 111 40% 1 17.03.2027 -
Mohamed Mallahi Pro Vercelli Aktiv 114 / 110 40% 1 12.03.2027 -
Mariusz Stępiński Korona Aktiv 121 / 112 40% 1 12.03.2027 -
Brandon Hanlan Doncaster Rovers Aktiv 94 / 94 40% 2 11.03.2027 -
Marco Tumminello Benevento Aktiv 100 / 117 40% 1 11.03.2027 -
Diego Valencia Gornik Leczna Aktiv 106 / 106 40% 5 10.03.2027 -
Eddie Salcedo OFI Aktiv 126 / 112 40% 1 10.03.2027 -
Evidence Mokoena Platinum Stars Aktiv 113 / 101 40% 3 09.03.2027 -
Lazar Tufegdžić Cukaricki Aktiv 107 / 115 40% 2 08.03.2027 -
Ricardinho Asteras Aktiv 107 / 118 40% 2 08.03.2027 -
Denzel Jubitana Atromitos Aktiv 114 / 116 40% 5 07.03.2027 -
Juan Cejas Ethnikos Achnas Aktiv 118 / 117 40% 6 04.03.2027 -
Rody Junior Effaghe Aris Aktiv 105 / 118 40% 3 28.02.2027 -
John Okoye Ebuka Ittihad Aktiv 107 / 124 40% 3 23.02.2027 -
Jerome Karelse Golden Arrows Aktiv 85 / 106 40% 2 23.02.2027 -
Freddie Draper Lincoln City Aktiv 116 / 121 40% 1 22.02.2027 -
Abdallah Gning Banik Ostrava Aktiv 111 / 115 40% 2 20.02.2027 -
Jorge Padilla Cherno More Aktiv 110 / 100 40% 1 20.02.2027 -
Themba Manyama Ajax Cape Town Aktiv 115 / 93 40% 2 19.02.2027 -
Harry Cornick AFC Wimbledon Aktiv 89 / 94 40% 2 18.02.2027 -
Marko Božić Wisla Krakow Aktiv 119 / 109 40% 1 18.02.2027 -
Pavel Meleshin Sochi Aktiv 106 / 116 40% 1 17.02.2027 -
Alessio Nepi Perugia Aktiv 89 / 97 40% 1 17.02.2027 -
Harry Smith Barnet Aktiv 108 / 92 40% 2 16.02.2027 -
Alexandr Yushin Torpedo Moscow Aktiv 99 / 108 40% 3 14.02.2027 -
Emil Stoev Slavia Sofia Aktiv 91 / 102 40% 1 14.02.2027 -
Joca Volos NPS Aktiv 119 / 109 40% 6 12.02.2027 -
Róbert Polievka MTK Budapest Aktiv 108 / 107 40% 3 12.02.2027 -
Dimitris Theodoridis Kifisia Aktiv 105 / 107 40% 1 11.02.2027 -
Dmitry Tsypchenko Torpedo Moscow Aktiv 97 / 101 40% 2 10.02.2027 -
David Ankeye Zeleznicar Pancevo Aktiv 116 / 114 40% 6 09.02.2027 -
Ilja Safronov Rotor Aktiv 105 / 107 40% 1 06.02.2027 -
Miro Dinamo Makhachkala Aktiv 115 / 114 40% 2 04.02.2027 -
Ekain Orobengoa Real Sociedad Aktiv 87 / 103 40% 1 01.02.2027 -
Ilija Babić Spartak Subotica Aktiv 100 / 108 40% 1 29.01.2027 -
Kwame Opoku Asante Kotoko Aktiv 87 / 104 40% 2 28.01.2027 -
Vladislav Sarveli Nizhniy Novgorod Aktiv 116 / 110 40% 1 27.01.2027 -
Alex Rolfini Carpi Aktiv 116 / 99 40% 1 27.01.2027 -
Ihor Krasnopir Polissia Aktiv 107 / 117 40% 2 26.01.2027 -
Bohdan Viunnyk Lechia Aktiv 103 / 112 40% 2 26.01.2027 -
Nikola Stajić Panetolikos Aktiv 102 / 106 55% 1 25.01.2027 -
Ioannis Pittas CSKA Sofia Aktiv 118 / 122 40% 2 24.01.2027 -
Anderson Pafos Aktiv 96 / 98 40% 1 21.01.2027 -
Solly Khunyedi Bloemfontein Celtic Aktiv 90 / 102 40% 2 19.01.2027 -
Aaron Drinan Swindon Town Aktiv 85 / 93 40% 2 30.12.2026 -
Viktor Hamsik FK Senica Aktiv 100 / 93 40% 3 28.12.2026 -
Ethan Hoard OFK Beograd Aktiv 99 / 97 40% 1 27.12.2026 -
Álex Arce Independiente Rivadavia Aktiv 120 / 118 40% 1 24.12.2026 Mehr Infos nötig
Yuki Ohashi Blackburn Rovers Abgelehnt 131 / 129 40% 1 22.12.2026 Mehr Infos nötig
Emiliano Marcondes OB Aktiv 112 / 102 40% 1 21.12.2026 -
Frédéric Maciel CSKA 1948 Aktiv 106 / 105 40% 1 19.12.2026 -
Rivaldo Ngcobo Free State Stars Abgelehnt 126 / 112 40% 2 18.12.2026 Mehr Infos nötig
Jordan Roberts Stevenage Aktiv 120 / 106 40% 1 15.12.2026 -
Kelly Saravanan Salford City Aktiv 105 / 112 40% 1 14.12.2026 -
Václav Jurečka Banik Ostrava Aktiv 125 / 120 40% 1 13.12.2026 -
Facundo Suárez Instituto Abgelehnt 119 / 130 40% 3 12.12.2026 Ablehnen
Assad Al Hamlawi Universitatea Craiova Aktiv 126 / 119 40% 3 11.12.2026 -
Fábio Tavares Newport County Aktiv 80 / 103 40% 1 11.12.2026 -
Dániel Lukács Puskas Akademia Aktiv 107 / 111 40% 1 10.12.2026 -
Tiago Pucciarelli FK Senica Aktiv 92 / 104 40% 1 10.12.2026 -
Nicolás Andereggen Ethnikos Achnas Abgelehnt 125 / 120 40% 2 07.12.2026 Mehr Infos nötig
Daniel Vašulín Zbrojovka Brno Aktiv 123 / 119 40% 1 05.12.2026 -
Leandro Godoy CSKA Sofia Aktiv 118 / 126 40% 1 05.12.2026 -
Pedro Marques Apollon Aktiv 95 / 107 40% 5 03.12.2026 -
Lewis McCann Fleetwood Town Aktiv 79 / 89 40% 1 03.12.2026 -
Bienvenue Kanakimana Zbrojovka Brno Aktiv 115 / 114 40% 1 28.11.2026 -
Iuri Tavares NK Varazdin Aktiv 121 / 111 40% 1 24.11.2026 -
Darío Poveda Nea Salamis Aktiv 84 / 111 40% 2 22.11.2026 -
Jajá Pafos Aktiv 119 / 117 40% 3 20.11.2026 -
Achraf Bencharki Al Ahly Aktiv 129 / 126 40% 2 19.11.2026 -
Barnabás Varga AEK Aktiv 135 / 127 40% 2 17.11.2026 -
Alexander Lyng SonderjyskE Aktiv 93 / 129 40% 1 16.11.2026 -
Gilson Benchimol Akron Aktiv 102 / 108 40% 1 15.11.2026 -
Jan Hurtado Volos NPS Aktiv 132 / 125 40% 1 15.11.2026 -
Elmin Rastoder Panathinaikos Aktiv 135 / 123 40% 5 14.11.2026 -
Demba Seck Partizan Aktiv 130 / 111 40% 3 13.11.2026 -
Matěj Pulkrab Teplice Aktiv 96 / 113 40% 2 13.11.2026 -
Gift Motupa Bloemfontein Celtic Aktiv 89 / 91 40% 1 10.11.2026 -
Gabriel Charpentier Cracovia Aktiv 128 / 108 40% 1 10.11.2026 -
Ştefan Baiaram Universitatea Craiova Aktiv 128 / 123 40% 2 05.11.2026 -
Ieltsin Camões Tromso Aktiv 107 / 123 40% 1 04.11.2026 -
Octavio Bianchi HNK Vukovar 1991 Aktiv 114 / 105 40% 2 03.11.2026 -
Victor Olatunji Real Salt Lake Aktiv 102 / 119 40% 1 02.11.2026 -
Ivo Costantino Danubio Aktiv 109 / 114 40% 1 29.10.2026 -
Frederik Ihler IF Elfsborg Aktiv 134 / 112 40% 1 28.10.2026 -
Matthew Hoppe SonderjyskE Aktiv 107 / 104 40% 2 25.10.2026 -
Dino Islamović Rosenborg Aktiv 111 / 117 40% 1 25.10.2026 -
Stefan Vukić Rudes Aktiv 114 / 111 40% 1 24.10.2026 -
Alberto Soro Dinamo Bucharest Aktiv 105 / 112 40% 2 23.10.2026 -
Chico Banza Zamalek Aktiv 121 / 118 40% 1 22.10.2026 -
Bautista Arricau OB Aktiv 105 / 110 40% 1 18.10.2026 -
Vinko Rozić Istra 1961 Aktiv 105 / 120 40% 1 15.10.2026 -
Sergio Santos Atlanta United FC Aktiv 119 / 102 40% 1 14.10.2026 -
Qara Ozobic Inter Aktiv 83 / 113 40% 1 14.10.2026 -
David Barbona Defensa y Justicia Aktiv 139 / 132 40% 3 10.10.2026 -
Sotiris Tsiloulis Atromitos Aktiv 116 / 99 40% 1 10.10.2026 -
Yegor Kortsov Dinamo Brest Aktiv 109 / 108 40% 1 09.10.2026 -
Brian White Vancouver Whitecaps Aktiv 128 / 112 40% 2 08.10.2026 -
Marcelo Torres Gimnasia La Plata Aktiv 107 / 121 40% 2 06.10.2026 -
Javi Zarzo Viitorul Aktiv 89 / 93 40% 1 06.10.2026 -
Florin Tănase FCSB Aktiv 126 / 132 40% 1 04.10.2026 -
Ousséni Bouda San Jose Earthquakes Aktiv 95 / 96 40% 1 04.10.2026 -
Andreas Helmersen Bodo/Glimt Aktiv 107 / 127 40% 1 02.10.2026 -
Riad Bajić AE Kition Aktiv 94 / 111 40% 1 30.09.2026 -
Vladimir Nikolov Slavia Sofia Aktiv 102 / 101 40% 1 30.09.2026 -
Georgi Minoungou Colorado Rapids Aktiv 121 / 104 40% 2 29.09.2026 -
Paulos Abraham Hammarby Aktiv 114 / 120 40% 1 29.09.2026 -
Wandile Duba Bidvest Wits Aktiv 105 / 103 40% 1 28.09.2026 -
Kristian Eriksen Molde Aktiv 126 / 117 40% 1 28.09.2026 -
Viktor Ekblom Tromso Aktiv 84 / 103 40% 1 24.09.2026 -
Alibek Aliev CFR Cluj Aktiv 121 / 112 40% 1 18.09.2026 -
Brayan León Mamelodi Sundowns Aktiv 126 / 126 40% 1 16.09.2026 -
Tenton Yenne Baltika Aktiv 101 / 102 40% 1 15.09.2026 -
Razvan Puscas Astra Verloren 120 / 115 40% 1 12.09.2026 -
Donis Avdijaj Wolfsberger AC Aktiv 126 / 115 40% 1 09.09.2026 -
Piotr Samiec-Talar Slask Aktiv 107 / 114 40% 1 08.09.2026 -
Taylor Calheira Sporting Kansas City Aktiv 93 / 86 40% 1 06.09.2026 -
Victor Mbaoma Tusker Aktiv 104 / 104 40% 1 06.09.2026 -
Armando González Olympiacos Aktiv 112 / 119 40% 2 05.09.2026 -
Ciprian Coman Pandurii Aktiv 103 / 131 40% 1 05.09.2026 -
Alen Ožbolt Apollon Aktiv 125 / 108 40% 2 03.09.2026 -
Yusuf Yazıcı Olympiacos Aktiv 112 / 131 40% 1 01.09.2026 -
José Balza Deportivo Tachira Aktiv 122 / 110 40% 1 26.08.2026 -
Kyogo Furuhashi LA Galaxy Aktiv 117 / 125 40% 1 25.08.2026 -
Loren Morón Aris Thessaloniki Aktiv 128 / 126 40% 1 25.08.2026 -
Ivan Sergeev Dinamo Moscow Aktiv 132 / 126 40% 1 22.08.2026 -
Kerim Mrabti AEK Aktiv 126 / 112 40% 2 21.08.2026 -
Brandon Thomas Apollon Aktiv 97 / 119 40% 1 19.08.2026 -
Ronny Maza Aragua Aktiv 102 / 99 40% 1 18.08.2026 -
Francisco Galván Deportivo Municipal Aktiv 102 / 108 40% 1 13.08.2026 -
Oto John CR Belouizdad Aktiv 116 / 112 40% 1 07.08.2026 -
Ahmet Arslan Breidablik Aktiv 89 / 101 40% 1 06.08.2026 -
Zini AEK Aktiv 112 / 117 40% 1 06.08.2026 -
Rodrigo Pollero Deportivo Tachira Aktiv 113 / 95 40% 1 05.08.2026 -
Munir Albacete Aktiv 104 / 114 40% 1 02.08.2026 -